createdAt,value
2022-10-18T00:02:04.000Z,14.8
2022-10-18T00:03:09.000Z,15.4
2022-10-18T00:04:15.000Z,14.5
2022-10-18T00:05:22.000Z,14.8
2022-10-18T00:06:28.000Z,14.1
2022-10-18T00:07:34.000Z,14.5
2022-10-18T00:08:40.000Z,14.5
2022-10-18T00:09:46.000Z,13.8
2022-10-18T00:10:52.000Z,13.8
2022-10-18T00:13:04.000Z,13.2
2022-10-18T00:14:10.000Z,14.1
2022-10-18T00:15:16.000Z,13.8
2022-10-18T00:16:22.000Z,14.8
2022-10-18T00:17:27.000Z,13.8
2022-10-18T00:18:33.000Z,14.5
2022-10-18T00:19:40.000Z,14.1
2022-10-18T00:20:46.000Z,14.5
2022-10-18T00:21:52.000Z,13.8
2022-10-18T00:22:58.000Z,14.5
2022-10-18T00:24:04.000Z,13.2
2022-10-18T00:25:10.000Z,13.8
2022-10-18T00:26:16.000Z,13.8
2022-10-18T00:27:22.000Z,14.5
2022-10-18T00:28:28.000Z,14.1
2022-10-18T00:29:34.000Z,14.1
2022-10-18T00:30:40.000Z,14.8
2022-10-18T00:31:45.000Z,14.8
2022-10-18T00:32:51.000Z,14.5
2022-10-18T00:33:58.000Z,15.1
2022-10-18T00:35:04.000Z,14.8
2022-10-18T00:36:10.000Z,15.1
2022-10-18T00:37:16.000Z,13.8
2022-10-18T00:38:22.000Z,13.5
2022-10-18T00:39:28.000Z,14.5
2022-10-18T00:40:34.000Z,14.5
2022-10-18T00:41:40.000Z,14.5
2022-10-18T00:42:46.000Z,14.1
2022-10-18T00:43:52.000Z,14.1
2022-10-18T00:46:04.000Z,14.1
2022-10-18T00:47:09.000Z,13.5
2022-10-18T00:48:15.000Z,14.8
2022-10-18T00:49:22.000Z,15.4
2022-10-18T00:50:28.000Z,15.1
2022-10-18T00:51:34.000Z,13.8
2022-10-18T00:52:40.000Z,13.8
2022-10-18T00:53:46.000Z,13.8
2022-10-18T00:54:52.000Z,14.1
2022-10-18T00:57:04.000Z,13.5
2022-10-18T00:58:10.000Z,14.1
2022-10-18T00:59:16.000Z,14.1
2022-10-18T01:00:22.000Z,14.8
2022-10-18T01:01:28.000Z,14.5
2022-10-18T01:02:34.000Z,13.8
2022-10-18T01:03:40.000Z,14.1
2022-10-18T01:04:46.000Z,14.5
2022-10-18T01:05:52.000Z,14.5
2022-10-18T01:06:58.000Z,13.5
2022-10-18T01:08:04.000Z,13.8
2022-10-18T01:09:10.000Z,14.8
2022-10-18T01:10:16.000Z,13.8
2022-10-18T01:11:22.000Z,13.8
2022-10-18T01:12:28.000Z,13.8
2022-10-18T01:13:34.000Z,14.1
2022-10-18T01:14:40.000Z,13.5
2022-10-18T01:15:45.000Z,13.8
2022-10-18T01:16:52.000Z,13.8
2022-10-18T01:17:58.000Z,14.1
2022-10-18T01:19:04.000Z,13.5
2022-10-18T01:20:10.000Z,13.8
2022-10-18T01:21:16.000Z,14.5
2022-10-18T01:22:22.000Z,13.5
2022-10-18T01:23:28.000Z,14.5
2022-10-18T01:24:34.000Z,12.8
2022-10-18T01:25:40.000Z,13.8
2022-10-18T01:26:46.000Z,14.1
2022-10-18T01:27:52.000Z,13.8
2022-10-18T01:30:04.000Z,13.8
2022-10-18T01:31:09.000Z,13.2
2022-10-18T01:32:16.000Z,13.8
2022-10-18T01:33:22.000Z,14.1
2022-10-18T01:34:28.000Z,13.2
2022-10-18T01:35:34.000Z,14.1
2022-10-18T01:36:40.000Z,14.5
2022-10-18T01:37:46.000Z,15.1
2022-10-18T01:38:52.000Z,14.1
2022-10-18T01:39:58.000Z,14.8
2022-10-18T01:41:04.000Z,13.8
2022-10-18T01:42:10.000Z,14.1
2022-10-18T01:43:16.000Z,14.1
2022-10-18T01:44:22.000Z,15.7
2022-10-18T01:45:29.000Z,14.1
2022-10-18T01:46:34.000Z,13.5
2022-10-18T01:47:40.000Z,13.8
2022-10-18T01:48:46.000Z,13.8
2022-10-18T01:49:52.000Z,14.1
2022-10-18T01:52:04.000Z,14.8
2022-10-18T01:53:10.000Z,14.5
2022-10-18T01:54:16.000Z,15.1
2022-10-18T01:55:22.000Z,14.5
2022-10-18T01:56:28.000Z,14.5
2022-10-18T01:57:34.000Z,15.1
2022-10-18T01:58:40.000Z,14.8
2022-10-18T01:59:47.000Z,14.8
2022-10-18T02:00:52.000Z,14.1
2022-10-18T02:01:58.000Z,14.5
2022-10-18T02:03:04.000Z,14.1
2022-10-18T02:04:10.000Z,14.1
2022-10-18T02:05:16.000Z,14.5
2022-10-18T02:06:22.000Z,14.8
2022-10-18T02:07:28.000Z,14.1
2022-10-18T02:08:34.000Z,13.8
2022-10-18T02:09:40.000Z,14.1
2022-10-18T02:10:46.000Z,14.1
2022-10-18T02:11:52.000Z,14.1
2022-10-18T02:14:05.000Z,14.1
2022-10-18T02:15:10.000Z,14.1
2022-10-18T02:16:16.000Z,14.5
2022-10-18T02:17:22.000Z,14.5
2022-10-18T02:18:28.000Z,14.8
2022-10-18T02:19:34.000Z,13.5
2022-10-18T02:20:40.000Z,14.8
2022-10-18T02:21:46.000Z,14.1
2022-10-18T02:22:52.000Z,14.8
2022-10-18T02:25:04.000Z,13.8
2022-10-18T02:26:10.000Z,14.5
2022-10-18T02:27:16.000Z,14.1
2022-10-18T02:28:22.000Z,13.8
2022-10-18T02:29:28.000Z,14.8
2022-10-18T02:30:34.000Z,14.5
2022-10-18T02:31:40.000Z,13.5
2022-10-18T02:32:46.000Z,14.5
2022-10-18T02:33:52.000Z,13.2
2022-10-18T02:36:04.000Z,13.8
2022-10-18T02:37:09.000Z,14.8
2022-10-18T02:38:14.000Z,14.5
2022-10-18T02:39:20.000Z,14.5
2022-10-18T02:40:26.000Z,13.8
2022-10-18T02:42:39.000Z,14.5
2022-10-18T02:43:45.000Z,14.5
2022-10-18T02:44:51.000Z,15.1
2022-10-18T02:47:03.000Z,15.1
2022-10-18T02:48:09.000Z,13.8
2022-10-18T02:49:15.000Z,14.1
2022-10-18T02:50:21.000Z,13.5
2022-10-18T02:51:26.000Z,13.5
2022-10-18T02:52:31.000Z,13.8
2022-10-18T02:53:37.000Z,15.1
2022-10-18T02:54:43.000Z,13.8
2022-10-18T02:55:49.000Z,14.1
2022-10-18T02:56:56.000Z,14.8
2022-10-18T02:58:02.000Z,13.5
2022-10-18T02:59:08.000Z,14.1
2022-10-18T03:00:14.000Z,13.8
2022-10-18T03:01:19.000Z,13.8
2022-10-18T03:02:25.000Z,13.5
2022-10-18T03:03:30.000Z,14.1
2022-10-18T03:04:35.000Z,14.5
2022-10-18T03:05:41.000Z,13.8
2022-10-18T03:06:47.000Z,14.1
2022-10-18T03:07:53.000Z,14.8
2022-10-18T03:08:59.000Z,14.1
2022-10-18T03:10:05.000Z,13.8
2022-10-18T03:11:12.000Z,14.1
2022-10-18T03:12:18.000Z,14.1
2022-10-18T03:13:24.000Z,14.1
2022-10-18T03:14:30.000Z,14.5
2022-10-18T03:15:35.000Z,13.5
2022-10-18T03:16:40.000Z,13.2
2022-10-18T03:17:46.000Z,14.1
2022-10-18T03:19:58.000Z,13.8
2022-10-18T03:21:04.000Z,14.1
2022-10-18T03:23:16.000Z,14.1
2022-10-18T03:24:23.000Z,13.5
2022-10-18T03:25:29.000Z,14.5
2022-10-18T03:26:35.000Z,14.8
2022-10-18T03:27:41.000Z,14.8
2022-10-18T03:28:47.000Z,14.5
2022-10-18T03:30:58.000Z,14.1
2022-10-18T03:32:03.000Z,14.5
2022-10-18T03:33:08.000Z,13.5
2022-10-18T03:34:14.000Z,13.8
2022-10-18T03:35:20.000Z,14.8
2022-10-18T03:36:27.000Z,14.1
2022-10-18T03:37:33.000Z,13.8
2022-10-18T03:38:39.000Z,13.8
2022-10-18T03:39:45.000Z,13.8
2022-10-18T03:41:57.000Z,14.5
2022-10-18T03:43:03.000Z,14.5
2022-10-18T03:44:09.000Z,13.5
2022-10-18T03:45:15.000Z,13.5
2022-10-18T03:46:21.000Z,14.8
2022-10-18T03:47:26.000Z,13.5
2022-10-18T03:48:32.000Z,14.1
2022-10-18T03:49:38.000Z,13.5
2022-10-18T03:50:44.000Z,14.1
2022-10-18T03:51:51.000Z,13.2
2022-10-18T03:52:57.000Z,13.5
2022-10-18T03:54:03.000Z,14.1
2022-10-18T03:55:09.000Z,14.1
2022-10-18T03:56:14.000Z,13.8
2022-10-18T03:57:19.000Z,14.1
2022-10-18T03:58:25.000Z,13.5
2022-10-18T04:00:37.000Z,14.1
2022-10-18T04:01:43.000Z,14.1
2022-10-18T04:02:49.000Z,14.5
2022-10-18T04:03:55.000Z,14.5
2022-10-18T04:05:01.000Z,14.8
2022-10-18T04:06:08.000Z,15.4
2022-10-18T04:07:14.000Z,13.8
2022-10-18T04:08:20.000Z,14.1
2022-10-18T04:09:26.000Z,13.8
2022-10-18T04:10:32.000Z,14.5
2022-10-18T04:11:37.000Z,14.1
2022-10-18T04:12:43.000Z,13.8
2022-10-18T04:13:49.000Z,13.8
2022-10-18T04:14:55.000Z,13.8
2022-10-18T04:16:01.000Z,14.8
2022-10-18T04:17:07.000Z,14.1
2022-10-18T04:18:13.000Z,13.8
2022-10-18T04:19:19.000Z,13.8
2022-10-18T04:20:25.000Z,13.2
2022-10-18T04:21:32.000Z,14.1
2022-10-18T04:22:38.000Z,14.1
2022-10-18T04:23:44.000Z,14.5
2022-10-18T04:25:56.000Z,13.8
2022-10-18T04:27:01.000Z,13.5
2022-10-18T04:28:07.000Z,14.1
2022-10-18T04:29:13.000Z,13.8
2022-10-18T04:30:19.000Z,14.5
2022-10-18T04:31:25.000Z,14.5
2022-10-18T04:32:31.000Z,14.1
2022-10-18T04:33:38.000Z,13.8
2022-10-18T04:34:44.000Z,14.1
2022-10-18T04:36:56.000Z,14.8
2022-10-18T04:38:02.000Z,14.1
2022-10-18T04:39:08.000Z,14.8
2022-10-18T04:40:14.000Z,13.5
2022-10-18T04:41:19.000Z,14.1
2022-10-18T04:42:25.000Z,14.1
2022-10-18T04:43:31.000Z,14.1
2022-10-18T04:44:37.000Z,13.2
2022-10-18T04:45:43.000Z,14.1
2022-10-18T04:46:49.000Z,13.5
2022-10-18T04:47:55.000Z,13.5
2022-10-18T04:49:02.000Z,13.8
2022-10-18T04:50:08.000Z,14.1
2022-10-18T04:51:14.000Z,14.5
2022-10-18T04:52:20.000Z,14.1
2022-10-18T04:53:26.000Z,13.8
2022-10-18T04:54:32.000Z,13.8
2022-10-18T04:55:37.000Z,14.5
2022-10-18T04:56:43.000Z,13.2
2022-10-18T04:57:49.000Z,13.8
2022-10-18T04:58:55.000Z,14.5
2022-10-18T05:00:01.000Z,14.1
2022-10-18T05:01:07.000Z,13.8
2022-10-18T05:02:13.000Z,13.8
2022-10-18T05:03:19.000Z,13.5
2022-10-18T05:04:26.000Z,14.8
2022-10-18T05:05:32.000Z,13.8
2022-10-18T05:06:38.000Z,14.1
2022-10-18T05:07:44.000Z,14.1
2022-10-18T05:09:56.000Z,13.8
2022-10-18T05:11:02.000Z,13.5
2022-10-18T05:12:07.000Z,13.8
2022-10-18T05:13:13.000Z,13.8
2022-10-18T05:14:19.000Z,14.1
2022-10-18T05:15:25.000Z,14.1
2022-10-18T05:16:31.000Z,13.2
2022-10-18T05:17:38.000Z,13.5
2022-10-18T05:18:44.000Z,14.1
2022-10-18T05:19:50.000Z,14.1
2022-10-18T05:20:56.000Z,14.1
2022-10-18T05:22:02.000Z,14.5
2022-10-18T05:23:08.000Z,13.5
2022-10-18T05:24:14.000Z,13.2
2022-10-18T05:25:20.000Z,13.2
2022-10-18T05:26:25.000Z,14.1
2022-10-18T05:27:31.000Z,13.2
2022-10-18T05:28:37.000Z,14.1
2022-10-18T05:29:43.000Z,14.1
2022-10-18T05:30:49.000Z,14.1
2022-10-18T05:33:02.000Z,13.8
2022-10-18T05:34:08.000Z,13.2
2022-10-18T05:35:14.000Z,13.8
2022-10-18T05:36:20.000Z,13.8
2022-10-18T05:37:26.000Z,15.1
2022-10-18T05:38:32.000Z,14.5
2022-10-18T05:39:38.000Z,14.5
2022-10-18T05:40:43.000Z,14.5
2022-10-18T05:41:49.000Z,13.8
2022-10-18T05:42:55.000Z,13.8
2022-10-18T05:45:07.000Z,13.8
2022-10-18T05:46:13.000Z,13.8
2022-10-18T05:47:20.000Z,13.5
2022-10-18T05:48:26.000Z,14.8
2022-10-18T05:49:32.000Z,14.1
2022-10-18T05:50:38.000Z,13.8
2022-10-18T05:51:44.000Z,13.8
2022-10-18T05:53:56.000Z,14.5
2022-10-18T05:55:01.000Z,14.5
2022-10-18T05:56:06.000Z,14.1
2022-10-18T05:57:12.000Z,13.2
2022-10-18T05:58:18.000Z,13.8
2022-10-18T05:59:24.000Z,14.1
2022-10-18T06:00:30.000Z,14.1
2022-10-18T06:01:36.000Z,13.8
2022-10-18T06:02:43.000Z,14.1
2022-10-18T06:04:55.000Z,13.8
2022-10-18T06:06:01.000Z,13.5
2022-10-18T06:07:07.000Z,14.5
2022-10-18T06:08:13.000Z,14.1
2022-10-18T06:09:19.000Z,14.1
2022-10-18T06:10:24.000Z,14.1
2022-10-18T06:11:30.000Z,14.1
2022-10-18T06:12:36.000Z,13.5
2022-10-18T06:13:42.000Z,13.5
2022-10-18T06:14:49.000Z,14.1
2022-10-18T06:15:55.000Z,13.5
2022-10-18T06:17:01.000Z,14.5
2022-10-18T06:18:07.000Z,15.1
2022-10-18T06:19:12.000Z,13.5
2022-10-18T06:20:17.000Z,13.5
2022-10-18T06:21:23.000Z,14.8
2022-10-18T06:22:29.000Z,14.1
2022-10-18T06:23:35.000Z,14.1
2022-10-18T06:24:41.000Z,13.8
2022-10-18T06:25:47.000Z,14.1
2022-10-18T06:26:53.000Z,13.5
2022-10-18T06:27:59.000Z,13.8
2022-10-18T06:29:05.000Z,13.8
2022-10-18T06:30:12.000Z,13.5
2022-10-18T06:31:18.000Z,14.5
2022-10-18T06:32:24.000Z,14.5
2022-10-18T06:33:30.000Z,13.5
2022-10-18T06:34:35.000Z,13.5
2022-10-18T06:36:47.000Z,13.8
2022-10-18T06:37:53.000Z,13.5
2022-10-18T06:38:59.000Z,13.8
2022-10-18T06:40:05.000Z,13.5
2022-10-18T06:41:11.000Z,15.1
2022-10-18T06:42:16.000Z,14.5
2022-10-18T06:43:22.000Z,13.8
2022-10-18T06:44:29.000Z,13.8
2022-10-18T06:45:35.000Z,13.8
2022-10-18T06:48:53.000Z,14.5
2022-10-18T06:49:58.000Z,13.2
2022-10-18T06:51:03.000Z,14.5
2022-10-18T06:52:09.000Z,13.8
2022-10-18T06:53:15.000Z,14.5
2022-10-18T06:54:21.000Z,13.5
2022-10-18T06:55:27.000Z,14.5
2022-10-18T06:56:33.000Z,13.5
2022-10-18T06:57:39.000Z,13.5
2022-10-18T06:59:52.000Z,13.8
2022-10-18T07:00:58.000Z,14.1
2022-10-18T07:02:04.000Z,14.1
2022-10-18T07:03:10.000Z,13.8
2022-10-18T07:04:16.000Z,14.5
2022-10-18T07:05:21.000Z,13.8
2022-10-18T07:06:27.000Z,14.1
2022-10-18T07:07:33.000Z,15.1
2022-10-18T07:08:39.000Z,15.1
2022-10-18T07:09:45.000Z,13.5
2022-10-18T07:10:51.000Z,13.5
2022-10-18T07:11:57.000Z,13.5
2022-10-18T07:13:03.000Z,14.1
2022-10-18T07:14:09.000Z,13.5
2022-10-18T07:15:14.000Z,13.5
2022-10-18T07:16:20.000Z,14.5
2022-10-18T07:17:26.000Z,13.2
2022-10-18T07:18:32.000Z,12.8
2022-10-18T07:19:38.000Z,14.1
2022-10-18T07:20:44.000Z,14.1
2022-10-18T07:21:50.000Z,13.8
2022-10-18T07:22:56.000Z,13.8
2022-10-18T07:24:02.000Z,14.5
2022-10-18T07:25:08.000Z,14.1
2022-10-18T07:26:14.000Z,12.8
2022-10-18T07:27:20.000Z,14.1
2022-10-18T07:28:26.000Z,13.8
2022-10-18T07:29:32.000Z,14.8
2022-10-18T07:30:38.000Z,14.5
2022-10-18T07:31:44.000Z,14.1
2022-10-18T07:32:50.000Z,14.1
2022-10-18T07:33:56.000Z,13.8
2022-10-18T07:35:02.000Z,13.5
2022-10-18T07:36:08.000Z,14.5
2022-10-18T07:37:14.000Z,14.1
2022-10-18T07:38:20.000Z,12.8
2022-10-18T07:39:26.000Z,14.1
2022-10-18T07:40:32.000Z,13.8
2022-10-18T07:41:39.000Z,13.8
2022-10-18T07:43:51.000Z,13.8
2022-10-18T07:44:56.000Z,14.1
2022-10-18T07:46:02.000Z,14.1
2022-10-18T07:47:08.000Z,13.8
2022-10-18T07:48:14.000Z,14.5
2022-10-18T07:49:20.000Z,14.1
2022-10-18T07:50:26.000Z,14.8
2022-10-18T07:51:32.000Z,13.5
2022-10-18T07:52:38.000Z,14.5
2022-10-18T07:54:50.000Z,13.2
2022-10-18T07:55:56.000Z,13.2
2022-10-18T07:57:03.000Z,13.5
2022-10-18T07:58:09.000Z,13.8
2022-10-18T07:59:14.000Z,14.1
2022-10-18T08:00:20.000Z,14.8
2022-10-18T08:01:26.000Z,13.8
2022-10-18T08:02:32.000Z,14.1
2022-10-18T08:03:38.000Z,13.2
2022-10-18T08:04:44.000Z,13.8
2022-10-18T08:05:50.000Z,14.1
2022-10-18T08:06:56.000Z,13.8
2022-10-18T08:08:02.000Z,13.5
2022-10-18T08:09:08.000Z,13.2
2022-10-18T08:10:14.000Z,13.8
2022-10-18T08:11:21.000Z,13.8
2022-10-18T08:12:27.000Z,14.1
2022-10-18T08:13:32.000Z,13.8
2022-10-18T08:14:38.000Z,14.1
2022-10-18T08:15:44.000Z,14.8
2022-10-18T08:16:50.000Z,13.8
2022-10-18T08:17:56.000Z,13.5
2022-10-18T08:19:02.000Z,14.8
2022-10-18T08:20:08.000Z,13.5
2022-10-18T08:21:14.000Z,13.5
2022-10-18T08:22:20.000Z,13.8
2022-10-18T08:23:26.000Z,13.8
2022-10-18T08:24:32.000Z,13.5
2022-10-18T08:25:39.000Z,13.5
2022-10-18T08:26:45.000Z,13.2
2022-10-18T08:27:50.000Z,14.1
2022-10-18T08:28:56.000Z,13.5
2022-10-18T08:30:02.000Z,14.1
2022-10-18T08:31:08.000Z,13.5
2022-10-18T08:32:14.000Z,13.5
2022-10-18T08:33:20.000Z,15.1
2022-10-18T08:34:26.000Z,13.5
2022-10-18T08:35:32.000Z,13.5
2022-10-18T08:36:38.000Z,14.8
2022-10-18T08:38:51.000Z,14.1
2022-10-18T08:39:57.000Z,13.8
2022-10-18T08:41:03.000Z,13.5
2022-10-18T08:42:08.000Z,14.1
2022-10-18T08:43:14.000Z,14.8
2022-10-18T08:44:20.000Z,13.8
2022-10-18T08:45:26.000Z,13.2
2022-10-18T08:46:32.000Z,14.5
2022-10-18T08:47:38.000Z,14.1
2022-10-18T08:49:50.000Z,13.8
2022-10-18T08:50:56.000Z,13.5
2022-10-18T08:52:02.000Z,14.5
2022-10-18T08:53:08.000Z,13.5
2022-10-18T08:54:15.000Z,13.5
2022-10-18T08:55:21.000Z,13.2
2022-10-18T08:56:26.000Z,13.8
2022-10-18T08:57:32.000Z,13.5
2022-10-18T08:58:38.000Z,13.2
2022-10-18T08:59:44.000Z,14.1
2022-10-18T09:00:50.000Z,13.5
2022-10-18T09:01:56.000Z,14.1
2022-10-18T09:04:08.000Z,13.8
2022-10-18T09:05:14.000Z,13.8
2022-10-18T09:06:20.000Z,14.8
2022-10-18T09:08:32.000Z,13.8
2022-10-18T09:09:38.000Z,13.5
2022-10-18T09:10:43.000Z,14.5
2022-10-18T09:11:49.000Z,13.8
2022-10-18T09:12:55.000Z,13.8
2022-10-18T09:14:01.000Z,14.5
2022-10-18T09:15:07.000Z,14.1
2022-10-18T09:16:13.000Z,14.8
2022-10-18T09:17:19.000Z,14.1
2022-10-18T09:18:25.000Z,14.1
2022-10-18T09:19:31.000Z,14.5
2022-10-18T09:20:37.000Z,14.5
2022-10-18T09:22:49.000Z,14.5
2022-10-18T09:23:54.000Z,14.1
2022-10-18T09:25:00.000Z,14.5
2022-10-18T09:26:06.000Z,14.1
2022-10-18T09:27:12.000Z,14.1
2022-10-18T09:28:18.000Z,13.5
2022-10-18T09:29:24.000Z,13.5
2022-10-18T09:30:30.000Z,14.8
2022-10-18T09:31:36.000Z,13.8
2022-10-18T09:33:48.000Z,13.8
2022-10-18T09:34:54.000Z,14.5
2022-10-18T09:36:00.000Z,13.5
2022-10-18T09:37:06.000Z,13.8
2022-10-18T09:38:12.000Z,13.2
2022-10-18T09:40:24.000Z,13.8
2022-10-18T09:41:30.000Z,13.5
2022-10-18T09:42:35.000Z,13.8
2022-10-18T09:44:47.000Z,14.5
2022-10-18T09:45:53.000Z,14.1
2022-10-18T09:46:58.000Z,13.5
2022-10-18T09:48:04.000Z,14.5
2022-10-18T09:49:10.000Z,13.8
2022-10-18T09:50:16.000Z,15.7
2022-10-18T09:51:22.000Z,13.8
2022-10-18T09:52:28.000Z,14.5
2022-10-18T09:53:35.000Z,13.8
2022-10-18T09:55:47.000Z,14.5
2022-10-18T09:56:53.000Z,14.5
2022-10-18T09:57:59.000Z,14.1
2022-10-18T09:59:05.000Z,13.8
2022-10-18T10:00:11.000Z,14.5
2022-10-18T10:01:17.000Z,13.8
2022-10-18T10:02:22.000Z,14.5
2022-10-18T10:03:28.000Z,13.8
2022-10-18T10:04:34.000Z,14.5
2022-10-18T10:05:41.000Z,13.5
2022-10-18T10:06:47.000Z,13.5
2022-10-18T10:07:53.000Z,13.5
2022-10-18T10:08:58.000Z,13.8
2022-10-18T10:10:04.000Z,13.5
2022-10-18T10:11:10.000Z,14.5
2022-10-18T10:12:16.000Z,13.5
2022-10-18T10:13:22.000Z,13.2
2022-10-18T10:14:28.000Z,14.1
2022-10-18T10:15:34.000Z,13.8
2022-10-18T10:16:40.000Z,14.1
2022-10-18T10:17:46.000Z,13.5
2022-10-18T10:18:53.000Z,13.8
2022-10-18T10:19:59.000Z,13.5
2022-10-18T10:21:05.000Z,13.5
2022-10-18T10:22:11.000Z,13.5
2022-10-18T10:23:17.000Z,14.1
2022-10-18T10:24:23.000Z,14.5
2022-10-18T10:25:29.000Z,13.8
2022-10-18T10:26:34.000Z,14.8
2022-10-18T10:28:46.000Z,13.8
2022-10-18T10:29:51.000Z,14.1
2022-10-18T10:30:57.000Z,14.1
2022-10-18T10:32:04.000Z,14.5
2022-10-18T10:33:10.000Z,13.8
2022-10-18T10:34:16.000Z,14.5
2022-10-18T10:35:22.000Z,14.1
2022-10-18T10:36:28.000Z,13.5
2022-10-18T10:37:34.000Z,13.8
2022-10-18T10:39:46.000Z,14.1
2022-10-18T10:40:52.000Z,14.5
2022-10-18T10:41:58.000Z,14.8
2022-10-18T10:43:04.000Z,14.1
2022-10-18T10:44:09.000Z,13.5
2022-10-18T10:45:15.000Z,13.8
2022-10-18T10:46:22.000Z,14.5
2022-10-18T10:47:28.000Z,14.5
2022-10-18T10:48:34.000Z,14.1
2022-10-18T10:49:40.000Z,14.8
2022-10-18T10:50:46.000Z,13.8
2022-10-18T10:51:52.000Z,14.5
2022-10-18T10:52:58.000Z,15.4
2022-10-18T10:54:04.000Z,14.5
2022-10-18T10:55:10.000Z,14.5
2022-10-18T10:56:16.000Z,13.8
2022-10-18T10:57:22.000Z,13.8
2022-10-18T10:58:28.000Z,13.8
2022-10-18T10:59:33.000Z,13.2
2022-10-18T11:00:39.000Z,14.8
2022-10-18T11:01:46.000Z,14.1
2022-10-18T11:02:52.000Z,13.5
2022-10-18T11:03:58.000Z,15.1
2022-10-18T11:05:04.000Z,13.5
2022-10-18T11:06:10.000Z,13.8
2022-10-18T11:07:16.000Z,14.1
2022-10-18T11:08:22.000Z,13.8
2022-10-18T11:09:28.000Z,14.1
2022-10-18T11:10:34.000Z,14.1
2022-10-18T11:12:46.000Z,14.5
2022-10-18T11:13:51.000Z,13.2
2022-10-18T11:14:57.000Z,14.1
2022-10-18T11:16:03.000Z,14.5
2022-10-18T11:17:10.000Z,14.1
2022-10-18T11:18:16.000Z,13.8
2022-10-18T11:19:22.000Z,13.8
2022-10-18T11:20:28.000Z,15.1
2022-10-18T11:21:34.000Z,13.5
2022-10-18T11:22:40.000Z,14.1
2022-10-18T11:23:46.000Z,14.1
2022-10-18T11:24:52.000Z,13.5
2022-10-18T11:25:58.000Z,13.8
2022-10-18T11:27:04.000Z,14.8
2022-10-18T11:28:10.000Z,13.8
2022-10-18T11:29:16.000Z,14.1
2022-10-18T11:30:22.000Z,14.5
2022-10-18T11:31:28.000Z,14.5
2022-10-18T11:32:34.000Z,13.8
2022-10-18T11:34:46.000Z,14.1
2022-10-18T11:36:58.000Z,14.5
2022-10-18T11:38:04.000Z,14.5
2022-10-18T11:39:10.000Z,14.1
2022-10-18T11:40:16.000Z,14.5
2022-10-18T11:42:28.000Z,14.1
2022-10-18T11:43:34.000Z,14.8
2022-10-18T11:45:46.000Z,14.8
2022-10-18T11:47:58.000Z,14.1
2022-10-18T11:49:03.000Z,14.5
2022-10-18T11:50:09.000Z,14.5
2022-10-18T11:51:14.000Z,14.8
2022-10-18T11:52:20.000Z,14.5
2022-10-18T11:53:26.000Z,14.5
2022-10-18T11:54:32.000Z,14.5
2022-10-18T11:55:38.000Z,14.5
2022-10-18T11:56:44.000Z,14.5
2022-10-18T11:57:51.000Z,14.5
2022-10-18T11:58:57.000Z,14.5
2022-10-18T12:00:03.000Z,15.1
2022-10-18T12:01:09.000Z,15.1
2022-10-18T12:02:15.000Z,15.7
2022-10-18T12:03:21.000Z,14.5
2022-10-18T12:04:27.000Z,14.8
2022-10-18T12:05:33.000Z,14.5
2022-10-18T12:07:44.000Z,14.1
2022-10-18T12:08:50.000Z,14.5
2022-10-18T12:09:56.000Z,14.8
2022-10-18T12:11:02.000Z,14.8
2022-10-18T12:12:08.000Z,14.5
2022-10-18T12:13:14.000Z,14.1
2022-10-18T12:14:20.000Z,14.5
2022-10-18T12:15:26.000Z,15.4
2022-10-18T12:16:32.000Z,14.8
2022-10-18T12:17:37.000Z,14.5
2022-10-18T12:18:43.000Z,14.1
2022-10-18T12:19:48.000Z,15.1
2022-10-18T12:20:54.000Z,14.8
2022-10-18T12:22:00.000Z,15.4
2022-10-18T12:23:06.000Z,14.8
2022-10-18T12:24:12.000Z,14.1
2022-10-18T12:25:19.000Z,15.1
2022-10-18T12:26:25.000Z,14.8
2022-10-18T12:29:43.000Z,14.8
2022-10-18T12:30:49.000Z,15.4
2022-10-18T12:31:54.000Z,15.4
2022-10-18T12:32:59.000Z,14.8
2022-10-18T12:34:05.000Z,15.7
2022-10-18T12:35:11.000Z,14.5
2022-10-18T12:36:17.000Z,14.8
2022-10-18T12:37:23.000Z,14.5
2022-10-18T12:38:29.000Z,15.1
2022-10-18T12:40:42.000Z,15.1
2022-10-18T12:41:48.000Z,14.1
2022-10-18T12:42:54.000Z,15.1
2022-10-18T12:44:00.000Z,14.5
2022-10-18T12:45:06.000Z,14.8
2022-10-18T12:46:12.000Z,14.8
2022-10-18T12:47:18.000Z,15.1
2022-10-18T12:48:24.000Z,14.8
2022-10-18T12:49:29.000Z,15.7
2022-10-18T12:50:35.000Z,15.7
2022-10-18T12:51:41.000Z,15.4
2022-10-18T12:52:47.000Z,15.1
2022-10-18T12:53:54.000Z,14.1
2022-10-18T12:55:00.000Z,14.8
2022-10-18T12:56:06.000Z,15.4
2022-10-18T12:57:11.000Z,14.8
2022-10-18T12:58:16.000Z,14.5
2022-10-18T12:59:22.000Z,15.4
2022-10-18T13:00:28.000Z,15.1
2022-10-18T13:01:34.000Z,15.1
2022-10-18T13:02:40.000Z,14.8
2022-10-18T13:03:46.000Z,15.4
2022-10-18T13:04:52.000Z,15.1
2022-10-18T13:05:58.000Z,15.1
2022-10-18T13:07:04.000Z,15.1
2022-10-18T13:08:11.000Z,14.1
2022-10-18T13:09:17.000Z,14.5
2022-10-18T13:10:23.000Z,15.7
2022-10-18T13:11:29.000Z,15.4
2022-10-18T13:12:35.000Z,16.1
2022-10-18T13:13:41.000Z,16.1
2022-10-18T13:14:46.000Z,14.8
2022-10-18T13:15:52.000Z,14.5
2022-10-18T13:16:58.000Z,14.5
2022-10-18T13:18:04.000Z,15.1
2022-10-18T13:19:10.000Z,14.1
2022-10-18T13:21:23.000Z,14.1
2022-10-18T13:22:29.000Z,15.4
2022-10-18T13:23:35.000Z,14.8
2022-10-18T13:24:41.000Z,14.8
2022-10-18T13:25:47.000Z,15.1
2022-10-18T13:26:53.000Z,15.4
2022-10-18T13:27:59.000Z,15.1
2022-10-18T13:29:05.000Z,14.5
2022-10-18T13:30:11.000Z,15.1
2022-10-18T13:31:17.000Z,16.1
2022-10-18T13:32:23.000Z,16.1
2022-10-18T13:33:29.000Z,15.1
2022-10-18T13:35:41.000Z,15.7
2022-10-18T13:36:47.000Z,15.7
2022-10-18T13:37:53.000Z,14.5
2022-10-18T13:38:59.000Z,15.1
2022-10-18T13:40:05.000Z,14.8
2022-10-18T13:41:11.000Z,13.8
2022-10-18T13:42:17.000Z,15.1
2022-10-18T13:43:23.000Z,15.1
2022-10-18T13:44:29.000Z,14.8
2022-10-18T13:45:35.000Z,15.1
2022-10-18T13:46:41.000Z,15.4
2022-10-18T13:48:53.000Z,15.4
2022-10-18T13:49:59.000Z,14.8
2022-10-18T13:51:06.000Z,15.4
2022-10-18T13:52:12.000Z,15.4
2022-10-18T13:53:18.000Z,15.1
2022-10-18T13:54:24.000Z,15.7
2022-10-18T13:55:30.000Z,16.7
2022-10-18T13:56:36.000Z,15.1
2022-10-18T13:57:42.000Z,15.1
2022-10-18T13:58:48.000Z,15.4
2022-10-18T13:59:53.000Z,15.4
2022-10-18T14:00:59.000Z,15.4
2022-10-18T14:02:05.000Z,15.1
2022-10-18T14:03:11.000Z,16.1
2022-10-18T14:04:17.000Z,15.7
2022-10-18T14:05:23.000Z,14.1
2022-10-18T14:06:30.000Z,15.4
2022-10-18T14:08:41.000Z,15.7
2022-10-18T14:09:46.000Z,15.4
2022-10-18T14:10:52.000Z,16.1
2022-10-18T14:11:58.000Z,16.1
2022-10-18T14:13:04.000Z,15.4
2022-10-18T14:14:10.000Z,15.7
2022-10-18T14:15:16.000Z,15.7
2022-10-18T14:16:22.000Z,15.1
2022-10-18T14:17:28.000Z,15.7
2022-10-18T14:19:41.000Z,15.4
2022-10-18T14:20:47.000Z,15.1
2022-10-18T14:21:53.000Z,15.4
2022-10-18T14:22:59.000Z,15.4
2022-10-18T14:24:04.000Z,15.7
2022-10-18T14:25:10.000Z,15.7
2022-10-18T14:26:16.000Z,15.4
2022-10-18T14:27:22.000Z,15.1
2022-10-18T14:28:28.000Z,14.8
2022-10-18T14:29:34.000Z,15.7
2022-10-18T14:30:40.000Z,15.4
2022-10-18T14:31:46.000Z,15.4
2022-10-18T14:32:52.000Z,14.5
2022-10-18T14:33:59.000Z,16.4
2022-10-18T14:35:05.000Z,16.1
2022-10-18T14:36:11.000Z,14.8
2022-10-18T14:37:17.000Z,15.4
2022-10-18T14:38:22.000Z,15.1
2022-10-18T14:39:28.000Z,15.7
2022-10-18T14:41:40.000Z,15.7
2022-10-18T14:42:46.000Z,15.4
2022-10-18T14:43:52.000Z,15.4
2022-10-18T14:44:58.000Z,15.4
2022-10-18T14:46:04.000Z,15.4
2022-10-18T14:47:10.000Z,15.1
2022-10-18T14:48:16.000Z,15.7
2022-10-18T14:49:23.000Z,16.7
2022-10-18T14:50:29.000Z,15.4
2022-10-18T14:51:35.000Z,15.7
2022-10-18T14:53:46.000Z,15.7
2022-10-18T14:54:52.000Z,15.7
2022-10-18T14:55:58.000Z,15.4
2022-10-18T14:57:04.000Z,15.1
2022-10-18T14:58:10.000Z,15.7
2022-10-18T14:59:16.000Z,16.1
2022-10-18T15:00:22.000Z,15.4
2022-10-18T15:01:28.000Z,15.7
2022-10-18T15:02:34.000Z,15.4
2022-10-18T15:03:41.000Z,15.7
2022-10-18T15:04:47.000Z,16.1
2022-10-18T15:05:53.000Z,15.7
2022-10-18T15:06:59.000Z,15.4
2022-10-18T15:08:04.000Z,15.7
2022-10-18T15:09:10.000Z,16.1
2022-10-18T15:10:16.000Z,15.1
2022-10-18T15:11:22.000Z,16.1
2022-10-18T15:12:28.000Z,15.4
2022-10-18T15:14:40.000Z,15.7
2022-10-18T15:15:46.000Z,15.4
2022-10-18T15:16:53.000Z,16.1
2022-10-18T15:17:59.000Z,15.4
2022-10-18T15:19:05.000Z,15.7
2022-10-18T15:20:11.000Z,15.7
2022-10-18T15:21:17.000Z,15.1
2022-10-18T15:22:22.000Z,16.4
2022-10-18T15:23:28.000Z,16.1
2022-10-18T15:24:34.000Z,15.4
2022-10-18T15:25:40.000Z,15.7
2022-10-18T15:26:46.000Z,15.7
2022-10-18T15:27:52.000Z,16.4
2022-10-18T15:28:58.000Z,16.1
2022-10-18T15:30:04.000Z,16.1
2022-10-18T15:31:10.000Z,15.7
2022-10-18T15:32:17.000Z,15.7
2022-10-18T15:33:23.000Z,15.4
2022-10-18T15:34:29.000Z,16.1
2022-10-18T15:35:35.000Z,15.4
2022-10-18T15:36:40.000Z,15.4
2022-10-18T15:37:46.000Z,15.4
2022-10-18T15:38:52.000Z,15.1
2022-10-18T15:39:58.000Z,15.4
2022-10-18T15:41:04.000Z,15.7
2022-10-18T15:42:10.000Z,15.7